sensor_id;sensor_type;location;lat;lon;timestamp;P1;durP1;ratioP1;P2;durP2;ratioP2
73733;SDS011;62039;50.000;9.064;2023-12-20T00:01:09;1.70;;;1.60;;
73733;SDS011;62039;50.000;9.064;2023-12-20T00:03:36;1.83;;;1.73;;
73733;SDS011;62039;50.000;9.064;2023-12-20T00:06:08;1.73;;;1.60;;
73733;SDS011;62039;50.000;9.064;2023-12-20T00:08:35;1.50;;;1.40;;
73733;SDS011;62039;50.000;9.064;2023-12-20T00:11:02;1.80;;;1.70;;
73733;SDS011;62039;50.000;9.064;2023-12-20T00:13:32;1.50;;;1.40;;
73733;SDS011;62039;50.000;9.064;2023-12-20T00:15:59;1.70;;;1.60;;
73733;SDS011;62039;50.000;9.064;2023-12-20T00:18:26;1.50;;;1.40;;
73733;SDS011;62039;50.000;9.064;2023-12-20T00:20:53;2.00;;;1.73;;
73733;SDS011;62039;50.000;9.064;2023-12-20T00:23:20;2.17;;;1.80;;
73733;SDS011;62039;50.000;9.064;2023-12-20T00:25:46;1.60;;;1.40;;
73733;SDS011;62039;50.000;9.064;2023-12-20T00:28:13;1.57;;;1.40;;
73733;SDS011;62039;50.000;9.064;2023-12-20T00:30:43;1.77;;;1.47;;
73733;SDS011;62039;50.000;9.064;2023-12-20T00:33:10;1.70;;;1.60;;
73733;SDS011;62039;50.000;9.064;2023-12-20T00:35:37;1.73;;;1.50;;
73733;SDS011;62039;50.000;9.064;2023-12-20T00:38:04;1.90;;;1.50;;
73733;SDS011;62039;50.000;9.064;2023-12-20T00:40:31;2.60;;;1.40;;
73733;SDS011;62039;50.000;9.064;2023-12-20T00:42:58;1.40;;;1.30;;
73733;SDS011;62039;50.000;9.064;2023-12-20T00:45:25;1.50;;;1.40;;
73733;SDS011;62039;50.000;9.064;2023-12-20T00:47:55;1.40;;;1.30;;
73733;SDS011;62039;50.000;9.064;2023-12-20T00:50:22;1.73;;;1.53;;
73733;SDS011;62039;50.000;9.064;2023-12-20T00:52:52;1.30;;;1.20;;
73733;SDS011;62039;50.000;9.064;2023-12-20T00:55:19;1.60;;;1.50;;
73733;SDS011;62039;50.000;9.064;2023-12-20T00:57:46;1.33;;;1.20;;
73733;SDS011;62039;50.000;9.064;2023-12-20T01:00:13;2.20;;;1.43;;
73733;SDS011;62039;50.000;9.064;2023-12-20T01:02:41;1.57;;;1.47;;
73733;SDS011;62039;50.000;9.064;2023-12-20T01:05:10;1.30;;;1.20;;
73733;SDS011;62039;50.000;9.064;2023-12-20T01:07:37;1.57;;;1.30;;
73733;SDS011;62039;50.000;9.064;2023-12-20T01:10:04;1.07;;;0.97;;
73733;SDS011;62039;50.000;9.064;2023-12-20T01:12:32;1.40;;;1.30;;
73733;SDS011;62039;50.000;9.064;2023-12-20T01:14:58;1.30;;;1.20;;
73733;SDS011;62039;50.000;9.064;2023-12-20T01:17:25;1.57;;;1.30;;
73733;SDS011;62039;50.000;9.064;2023-12-20T01:19:52;1.67;;;1.50;;
73733;SDS011;62039;50.000;9.064;2023-12-20T01:22:22;1.30;;;1.20;;
73733;SDS011;62039;50.000;9.064;2023-12-20T01:24:49;1.40;;;1.30;;
73733;SDS011;62039;50.000;9.064;2023-12-20T01:27:16;1.60;;;1.30;;
73733;SDS011;62039;50.000;9.064;2023-12-20T01:29:43;1.70;;;1.60;;
73733;SDS011;62039;50.000;9.064;2023-12-20T01:32:10;1.50;;;1.40;;
73733;SDS011;62039;50.000;9.064;2023-12-20T01:34:37;1.40;;;1.30;;
73733;SDS011;62039;50.000;9.064;2023-12-20T01:37:04;1.20;;;1.10;;
73733;SDS011;62039;50.000;9.064;2023-12-20T01:39:33;1.27;;;1.17;;
73733;SDS011;62039;50.000;9.064;2023-12-20T01:42:00;1.53;;;1.40;;
73733;SDS011;62039;50.000;9.064;2023-12-20T01:44:27;1.30;;;1.20;;
73733;SDS011;62039;50.000;9.064;2023-12-20T01:46:54;1.50;;;1.20;;
73733;SDS011;62039;50.000;9.064;2023-12-20T01:49:21;1.60;;;1.40;;
73733;SDS011;62039;50.000;9.064;2023-12-20T01:51:49;1.50;;;1.40;;
73733;SDS011;62039;50.000;9.064;2023-12-20T01:54:16;1.30;;;1.20;;
73733;SDS011;62039;50.000;9.064;2023-12-20T01:56:48;1.73;;;1.40;;
73733;SDS011;62039;50.000;9.064;2023-12-20T01:59:16;1.30;;;1.20;;
73733;SDS011;62039;50.000;9.064;2023-12-20T02:01:44;3.20;;;1.40;;
73733;SDS011;62039;50.000;9.064;2023-12-20T02:04:11;1.30;;;1.20;;
73733;SDS011;62039;50.000;9.064;2023-12-20T02:06:38;2.30;;;1.40;;
73733;SDS011;62039;50.000;9.064;2023-12-20T02:09:06;1.50;;;1.40;;
73733;SDS011;62039;50.000;9.064;2023-12-20T02:11:34;1.53;;;1.43;;
73733;SDS011;62039;50.000;9.064;2023-12-20T02:14:04;1.53;;;1.43;;
73733;SDS011;62039;50.000;9.064;2023-12-20T02:16:31;1.30;;;1.13;;
73733;SDS011;62039;50.000;9.064;2023-12-20T02:18:58;1.83;;;1.23;;
73733;SDS011;62039;50.000;9.064;2023-12-20T02:21:31;1.47;;;1.37;;
73733;SDS011;62039;50.000;9.064;2023-12-20T02:23:58;1.30;;;1.20;;
73733;SDS011;62039;50.000;9.064;2023-12-20T02:26:25;1.30;;;1.03;;
73733;SDS011;62039;50.000;9.064;2023-12-20T02:28:52;1.80;;;1.13;;
73733;SDS011;62039;50.000;9.064;2023-12-20T02:31:20;1.40;;;1.27;;
73733;SDS011;62039;50.000;9.064;2023-12-20T02:33:47;1.30;;;1.20;;
73733;SDS011;62039;50.000;9.064;2023-12-20T02:36:14;1.30;;;1.20;;
73733;SDS011;62039;50.000;9.064;2023-12-20T02:38:44;1.13;;;1.03;;
73733;SDS011;62039;50.000;9.064;2023-12-20T02:41:11;1.30;;;1.20;;
73733;SDS011;62039;50.000;9.064;2023-12-20T02:43:37;1.30;;;1.20;;
73733;SDS011;62039;50.000;9.064;2023-12-20T02:46:04;1.20;;;1.10;;
73733;SDS011;62039;50.000;9.064;2023-12-20T02:48:31;1.27;;;1.13;;
73733;SDS011;62039;50.000;9.064;2023-12-20T02:50:58;1.13;;;1.00;;
73733;SDS011;62039;50.000;9.064;2023-12-20T02:53:25;1.43;;;1.10;;
73733;SDS011;62039;50.000;9.064;2023-12-20T02:55:55;2.90;;;1.30;;
73733;SDS011;62039;50.000;9.064;2023-12-20T02:58:22;1.30;;;1.20;;
73733;SDS011;62039;50.000;9.064;2023-12-20T03:00:49;1.10;;;1.00;;
73733;SDS011;62039;50.000;9.064;2023-12-20T03:03:16;1.10;;;1.00;;
73733;SDS011;62039;50.000;9.064;2023-12-20T03:05:43;1.00;;;1.00;;
73733;SDS011;62039;50.000;9.064;2023-12-20T03:08:11;1.10;;;1.00;;
73733;SDS011;62039;50.000;9.064;2023-12-20T03:10:38;1.20;;;1.10;;
73733;SDS011;62039;50.000;9.064;2023-12-20T03:13:07;0.90;;;0.90;;
73733;SDS011;62039;50.000;9.064;2023-12-20T03:15:34;1.20;;;1.10;;
73733;SDS011;62039;50.000;9.064;2023-12-20T03:18:01;1.20;;;1.10;;
73733;SDS011;62039;50.000;9.064;2023-12-20T03:20:29;1.20;;;1.10;;
73733;SDS011;62039;50.000;9.064;2023-12-20T03:22:56;1.17;;;1.07;;
73733;SDS011;62039;50.000;9.064;2023-12-20T03:25:23;0.83;;;0.83;;
73733;SDS011;62039;50.000;9.064;2023-12-20T03:27:50;1.10;;;1.00;;
73733;SDS011;62039;50.000;9.064;2023-12-20T03:30:19;0.70;;;0.70;;
73733;SDS011;62039;50.000;9.064;2023-12-20T03:32:46;0.87;;;0.83;;
73733;SDS011;62039;50.000;9.064;2023-12-20T03:35:14;0.80;;;0.80;;
73733;SDS011;62039;50.000;9.064;2023-12-20T03:37:41;0.80;;;0.80;;
73733;SDS011;62039;50.000;9.064;2023-12-20T03:40:09;0.80;;;0.80;;
73733;SDS011;62039;50.000;9.064;2023-12-20T03:42:36;0.93;;;0.90;;
73733;SDS011;62039;50.000;9.064;2023-12-20T03:45:04;0.80;;;0.80;;
73733;SDS011;62039;50.000;9.064;2023-12-20T03:47:34;0.80;;;0.80;;
73733;SDS011;62039;50.000;9.064;2023-12-20T03:50:01;0.83;;;0.80;;
73733;SDS011;62039;50.000;9.064;2023-12-20T03:52:30;0.83;;;0.83;;
73733;SDS011;62039;50.000;9.064;2023-12-20T03:54:57;0.73;;;0.73;;
73733;SDS011;62039;50.000;9.064;2023-12-20T03:57:24;1.10;;;1.00;;
73733;SDS011;62039;50.000;9.064;2023-12-20T03:59:51;0.87;;;0.87;;
73733;SDS011;62039;50.000;9.064;2023-12-20T04:02:18;0.90;;;0.87;;
73733;SDS011;62039;50.000;9.064;2023-12-20T04:04:48;1.20;;;1.10;;
73733;SDS011;62039;50.000;9.064;2023-12-20T04:07:15;1.20;;;1.10;;
73733;SDS011;62039;50.000;9.064;2023-12-20T04:09:42;1.23;;;1.10;;
73733;SDS011;62039;50.000;9.064;2023-12-20T04:12:09;1.63;;;1.10;;
73733;SDS011;62039;50.000;9.064;2023-12-20T04:14:36;0.97;;;0.97;;
73733;SDS011;62039;50.000;9.064;2023-12-20T04:17:03;1.10;;;1.00;;
73733;SDS011;62039;50.000;9.064;2023-12-20T04:19:30;1.30;;;1.20;;
73733;SDS011;62039;50.000;9.064;2023-12-20T04:21:59;1.10;;;0.87;;
73733;SDS011;62039;50.000;9.064;2023-12-20T04:24:26;1.40;;;1.20;;
73733;SDS011;62039;50.000;9.064;2023-12-20T04:26:53;1.07;;;0.97;;
73733;SDS011;62039;50.000;9.064;2023-12-20T04:29:20;0.90;;;0.90;;
73733;SDS011;62039;50.000;9.064;2023-12-20T04:31:47;1.13;;;1.03;;
73733;SDS011;62039;50.000;9.064;2023-12-20T04:34:14;1.00;;;0.90;;
73733;SDS011;62039;50.000;9.064;2023-12-20T04:36:41;0.90;;;0.90;;
73733;SDS011;62039;50.000;9.064;2023-12-20T04:39:11;0.90;;;0.90;;
73733;SDS011;62039;50.000;9.064;2023-12-20T04:41:39;0.90;;;0.90;;
73733;SDS011;62039;50.000;9.064;2023-12-20T04:44:06;0.80;;;0.80;;
73733;SDS011;62039;50.000;9.064;2023-12-20T04:46:33;1.80;;;1.43;;
73733;SDS011;62039;50.000;9.064;2023-12-20T04:49:00;1.60;;;1.20;;
73733;SDS011;62039;50.000;9.064;2023-12-20T04:51:27;2.30;;;1.67;;
73733;SDS011;62039;50.000;9.064;2023-12-20T04:53:54;1.50;;;1.40;;
73733;SDS011;62039;50.000;9.064;2023-12-20T04:56:23;1.77;;;1.60;;
73733;SDS011;62039;50.000;9.064;2023-12-20T04:58:50;2.87;;;1.90;;
73733;SDS011;62039;50.000;9.064;2023-12-20T05:01:17;2.80;;;1.90;;
73733;SDS011;62039;50.000;9.064;2023-12-20T05:03:44;2.30;;;1.93;;
73733;SDS011;62039;50.000;9.064;2023-12-20T05:06:11;2.67;;;1.37;;
73733;SDS011;62039;50.000;9.064;2023-12-20T05:08:38;1.40;;;1.30;;
73733;SDS011;62039;50.000;9.064;2023-12-20T05:11:05;1.10;;;1.00;;
73733;SDS011;62039;50.000;9.064;2023-12-20T05:13:35;1.20;;;1.10;;
73733;SDS011;62039;50.000;9.064;2023-12-20T05:16:13;1.40;;;1.10;;
73733;SDS011;62039;50.000;9.064;2023-12-20T05:18:40;1.10;;;1.00;;
73733;SDS011;62039;50.000;9.064;2023-12-20T05:21:07;0.93;;;0.90;;
73733;SDS011;62039;50.000;9.064;2023-12-20T05:23:34;1.20;;;1.10;;
73733;SDS011;62039;50.000;9.064;2023-12-20T05:26:00;1.20;;;1.10;;
73733;SDS011;62039;50.000;9.064;2023-12-20T05:28:27;1.23;;;0.97;;
73733;SDS011;62039;50.000;9.064;2023-12-20T05:30:57;1.00;;;1.00;;
73733;SDS011;62039;50.000;9.064;2023-12-20T05:33:24;1.03;;;0.93;;
73733;SDS011;62039;50.000;9.064;2023-12-20T05:35:51;1.07;;;0.97;;
73733;SDS011;62039;50.000;9.064;2023-12-20T05:38:18;1.47;;;1.13;;
73733;SDS011;62039;50.000;9.064;2023-12-20T05:40:45;1.67;;;1.13;;
73733;SDS011;62039;50.000;9.064;2023-12-20T05:43:12;1.67;;;1.10;;
73733;SDS011;62039;50.000;9.064;2023-12-20T05:45:39;1.33;;;1.20;;
73733;SDS011;62039;50.000;9.064;2023-12-20T05:48:09;1.10;;;1.00;;
73733;SDS011;62039;50.000;9.064;2023-12-20T05:50:36;1.07;;;0.97;;
73733;SDS011;62039;50.000;9.064;2023-12-20T05:53:03;1.30;;;1.20;;
73733;SDS011;62039;50.000;9.064;2023-12-20T05:55:30;1.20;;;1.10;;
73733;SDS011;62039;50.000;9.064;2023-12-20T05:57:57;1.50;;;1.10;;
73733;SDS011;62039;50.000;9.064;2023-12-20T06:00:24;2.67;;;1.17;;
73733;SDS011;62039;50.000;9.064;2023-12-20T06:02:51;1.33;;;1.23;;
73733;SDS011;62039;50.000;9.064;2023-12-20T06:05:20;1.27;;;1.17;;
73733;SDS011;62039;50.000;9.064;2023-12-20T06:07:47;1.87;;;1.00;;
73733;SDS011;62039;50.000;9.064;2023-12-20T06:10:15;1.20;;;1.10;;
73733;SDS011;62039;50.000;9.064;2023-12-20T06:12:42;1.90;;;1.27;;
73733;SDS011;62039;50.000;9.064;2023-12-20T06:15:09;1.20;;;1.10;;
73733;SDS011;62039;50.000;9.064;2023-12-20T06:17:36;1.30;;;1.20;;
73733;SDS011;62039;50.000;9.064;2023-12-20T06:20:03;1.40;;;1.30;;
73733;SDS011;62039;50.000;9.064;2023-12-20T06:22:34;1.07;;;1.00;;
73733;SDS011;62039;50.000;9.064;2023-12-20T06:25:01;1.20;;;1.07;;
73733;SDS011;62039;50.000;9.064;2023-12-20T06:27:28;1.20;;;1.07;;
73733;SDS011;62039;50.000;9.064;2023-12-20T06:29:55;1.20;;;1.10;;
73733;SDS011;62039;50.000;9.064;2023-12-20T06:32:22;1.30;;;1.20;;
73733;SDS011;62039;50.000;9.064;2023-12-20T06:34:49;1.13;;;1.10;;
73733;SDS011;62039;50.000;9.064;2023-12-20T06:37:16;1.30;;;1.20;;
73733;SDS011;62039;50.000;9.064;2023-12-20T06:39:45;1.10;;;1.00;;
73733;SDS011;62039;50.000;9.064;2023-12-20T06:42:12;1.77;;;1.00;;
73733;SDS011;62039;50.000;9.064;2023-12-20T06:44:39;1.00;;;0.90;;
73733;SDS011;62039;50.000;9.064;2023-12-20T06:47:06;1.77;;;1.30;;
73733;SDS011;62039;50.000;9.064;2023-12-20T06:49:34;1.10;;;1.00;;
73733;SDS011;62039;50.000;9.064;2023-12-20T06:52:01;0.90;;;0.90;;
73733;SDS011;62039;50.000;9.064;2023-12-20T06:54:28;1.33;;;0.90;;
73733;SDS011;62039;50.000;9.064;2023-12-20T06:56:58;1.40;;;1.10;;
73733;SDS011;62039;50.000;9.064;2023-12-20T06:59:25;1.93;;;1.00;;
73733;SDS011;62039;50.000;9.064;2023-12-20T07:01:52;1.50;;;1.10;;
73733;SDS011;62039;50.000;9.064;2023-12-20T07:04:19;0.93;;;0.80;;
73733;SDS011;62039;50.000;9.064;2023-12-20T07:06:46;1.03;;;0.90;;
73733;SDS011;62039;50.000;9.064;2023-12-20T07:09:14;1.57;;;1.00;;
73733;SDS011;62039;50.000;9.064;2023-12-20T07:11:40;2.60;;;1.00;;
73733;SDS011;62039;50.000;9.064;2023-12-20T07:14:10;1.10;;;0.90;;
73733;SDS011;62039;50.000;9.064;2023-12-20T07:16:37;1.87;;;1.00;;
73733;SDS011;62039;50.000;9.064;2023-12-20T07:19:04;1.00;;;0.90;;
73733;SDS011;62039;50.000;9.064;2023-12-20T07:21:31;1.20;;;0.97;;
73733;SDS011;62039;50.000;9.064;2023-12-20T07:23:58;1.57;;;1.10;;
73733;SDS011;62039;50.000;9.064;2023-12-20T07:26:25;1.57;;;1.10;;
73733;SDS011;62039;50.000;9.064;2023-12-20T07:28:51;1.47;;;1.17;;
73733;SDS011;62039;50.000;9.064;2023-12-20T07:31:21;1.83;;;1.20;;
73733;SDS011;62039;50.000;9.064;2023-12-20T07:33:48;1.20;;;1.10;;
73733;SDS011;62039;50.000;9.064;2023-12-20T07:36:15;1.07;;;0.93;;
73733;SDS011;62039;50.000;9.064;2023-12-20T07:38:42;1.20;;;1.10;;
73733;SDS011;62039;50.000;9.064;2023-12-20T07:41:09;1.37;;;1.20;;
73733;SDS011;62039;50.000;9.064;2023-12-20T07:43:36;1.33;;;1.23;;
73733;SDS011;62039;50.000;9.064;2023-12-20T07:46:06;2.60;;;1.10;;
73733;SDS011;62039;50.000;9.064;2023-12-20T07:48:36;3.60;;;1.50;;
73733;SDS011;62039;50.000;9.064;2023-12-20T07:51:03;1.30;;;1.13;;
73733;SDS011;62039;50.000;9.064;2023-12-20T07:53:31;1.83;;;1.40;;
73733;SDS011;62039;50.000;9.064;2023-12-20T07:55:58;3.33;;;1.50;;
73733;SDS011;62039;50.000;9.064;2023-12-20T07:58:25;1.87;;;1.50;;
73733;SDS011;62039;50.000;9.064;2023-12-20T08:01:10;1.73;;;1.50;;
73733;SDS011;62039;50.000;9.064;2023-12-20T08:03:40;1.67;;;1.30;;
73733;SDS011;62039;50.000;9.064;2023-12-20T08:06:07;2.03;;;1.10;;
73733;SDS011;62039;50.000;9.064;2023-12-20T08:08:34;1.90;;;1.73;;
73733;SDS011;62039;50.000;9.064;2023-12-20T08:11:01;4.57;;;3.77;;
73733;SDS011;62039;50.000;9.064;2023-12-20T08:13:28;5.07;;;3.30;;
73733;SDS011;62039;50.000;9.064;2023-12-20T08:15:55;2.80;;;2.20;;
73733;SDS011;62039;50.000;9.064;2023-12-20T08:18:22;3.43;;;1.80;;
73733;SDS011;62039;50.000;9.064;2023-12-20T08:20:52;2.83;;;1.40;;
73733;SDS011;62039;50.000;9.064;2023-12-20T08:23:19;2.50;;;1.53;;
73733;SDS011;62039;50.000;9.064;2023-12-20T08:25:47;2.17;;;1.50;;
73733;SDS011;62039;50.000;9.064;2023-12-20T08:28:14;1.97;;;1.30;;
73733;SDS011;62039;50.000;9.064;2023-12-20T08:30:41;1.70;;;1.30;;
73733;SDS011;62039;50.000;9.064;2023-12-20T08:33:08;3.03;;;1.70;;
73733;SDS011;62039;50.000;9.064;2023-12-20T08:35:35;2.43;;;1.40;;
73733;SDS011;62039;50.000;9.064;2023-12-20T08:38:05;3.37;;;1.73;;
73733;SDS011;62039;50.000;9.064;2023-12-20T08:40:32;3.13;;;1.67;;
73733;SDS011;62039;50.000;9.064;2023-12-20T08:42:59;2.47;;;1.50;;
73733;SDS011;62039;50.000;9.064;2023-12-20T08:45:26;2.67;;;1.80;;
73733;SDS011;62039;50.000;9.064;2023-12-20T08:47:53;1.97;;;1.27;;
73733;SDS011;62039;50.000;9.064;2023-12-20T08:50:23;4.53;;;1.60;;
73733;SDS011;62039;50.000;9.064;2023-12-20T08:52:50;3.03;;;1.67;;
73733;SDS011;62039;50.000;9.064;2023-12-20T08:55:20;2.30;;;1.57;;
73733;SDS011;62039;50.000;9.064;2023-12-20T08:57:47;3.80;;;1.40;;
73733;SDS011;62039;50.000;9.064;2023-12-20T09:00:15;1.70;;;1.23;;
73733;SDS011;62039;50.000;9.064;2023-12-20T09:02:42;2.70;;;1.60;;
73733;SDS011;62039;50.000;9.064;2023-12-20T09:05:09;2.50;;;1.20;;
73733;SDS011;62039;50.000;9.064;2023-12-20T09:07:36;3.43;;;1.67;;
73733;SDS011;62039;50.000;9.064;2023-12-20T09:10:03;2.00;;;1.13;;
73733;SDS011;62039;50.000;9.064;2023-12-20T09:12:33;2.17;;;1.10;;
73733;SDS011;62039;50.000;9.064;2023-12-20T09:15:00;1.83;;;0.90;;
73733;SDS011;62039;50.000;9.064;2023-12-20T09:17:27;2.80;;;1.20;;
73733;SDS011;62039;50.000;9.064;2023-12-20T09:19:54;3.10;;;1.60;;
73733;SDS011;62039;50.000;9.064;2023-12-20T09:22:21;3.10;;;1.30;;
73733;SDS011;62039;50.000;9.064;2023-12-20T09:24:48;4.00;;;1.40;;
73733;SDS011;62039;50.000;9.064;2023-12-20T09:27:15;2.80;;;1.30;;
73733;SDS011;62039;50.000;9.064;2023-12-20T09:29:44;4.67;;;1.50;;
73733;SDS011;62039;50.000;9.064;2023-12-20T09:32:11;4.27;;;1.37;;
73733;SDS011;62039;50.000;9.064;2023-12-20T09:34:38;2.33;;;1.17;;
73733;SDS011;62039;50.000;9.064;2023-12-20T09:37:05;3.70;;;1.30;;
73733;SDS011;62039;50.000;9.064;2023-12-20T09:39:32;3.50;;;1.50;;
73733;SDS011;62039;50.000;9.064;2023-12-20T09:42:00;3.83;;;1.40;;
73733;SDS011;62039;50.000;9.064;2023-12-20T09:44:28;6.10;;;1.57;;
73733;SDS011;62039;50.000;9.064;2023-12-20T09:46:57;3.27;;;1.30;;
73733;SDS011;62039;50.000;9.064;2023-12-20T09:49:25;3.27;;;1.07;;
73733;SDS011;62039;50.000;9.064;2023-12-20T09:51:54;1.60;;;1.10;;
73733;SDS011;62039;50.000;9.064;2023-12-20T09:54:21;4.13;;;1.37;;
73733;SDS011;62039;50.000;9.064;2023-12-20T09:56:49;5.17;;;1.60;;
73733;SDS011;62039;50.000;9.064;2023-12-20T09:59:17;2.87;;;1.90;;
73733;SDS011;62039;50.000;9.064;2023-12-20T10:01:44;5.10;;;2.20;;
73733;SDS011;62039;50.000;9.064;2023-12-20T10:04:13;5.30;;;2.27;;
73733;SDS011;62039;50.000;9.064;2023-12-20T10:06:55;5.07;;;2.70;;
73733;SDS011;62039;50.000;9.064;2023-12-20T10:09:22;3.97;;;2.00;;
73733;SDS011;62039;50.000;9.064;2023-12-20T10:11:53;2.50;;;1.60;;
73733;SDS011;62039;50.000;9.064;2023-12-20T10:14:21;3.80;;;1.80;;
73733;SDS011;62039;50.000;9.064;2023-12-20T10:16:48;4.93;;;2.40;;
73733;SDS011;62039;50.000;9.064;2023-12-20T10:19:19;7.87;;;2.40;;
73733;SDS011;62039;50.000;9.064;2023-12-20T10:21:46;3.57;;;1.93;;
73733;SDS011;62039;50.000;9.064;2023-12-20T10:24:16;3.00;;;1.30;;
73733;SDS011;62039;50.000;9.064;2023-12-20T10:26:43;2.00;;;1.40;;
73733;SDS011;62039;50.000;9.064;2023-12-20T10:29:10;2.20;;;1.37;;
73733;SDS011;62039;50.000;9.064;2023-12-20T10:31:37;4.70;;;1.63;;
73733;SDS011;62039;50.000;9.064;2023-12-20T10:34:04;1.90;;;1.50;;
73733;SDS011;62039;50.000;9.064;2023-12-20T10:36:34;5.80;;;2.03;;
73733;SDS011;62039;50.000;9.064;2023-12-20T10:39:01;4.23;;;1.73;;
73733;SDS011;62039;50.000;9.064;2023-12-20T10:41:29;2.93;;;1.60;;
73733;SDS011;62039;50.000;9.064;2023-12-20T10:43:57;5.07;;;2.10;;
73733;SDS011;62039;50.000;9.064;2023-12-20T10:46:26;5.80;;;2.30;;
73733;SDS011;62039;50.000;9.064;2023-12-20T10:48:53;3.77;;;2.10;;
73733;SDS011;62039;50.000;9.064;2023-12-20T10:51:21;2.60;;;1.60;;
73733;SDS011;62039;50.000;9.064;2023-12-20T10:53:51;3.40;;;1.70;;
73733;SDS011;62039;50.000;9.064;2023-12-20T10:56:19;3.37;;;2.20;;
73733;SDS011;62039;50.000;9.064;2023-12-20T10:58:46;4.23;;;2.40;;
73733;SDS011;62039;50.000;9.064;2023-12-20T11:01:15;4.70;;;2.20;;
73733;SDS011;62039;50.000;9.064;2023-12-20T11:03:44;3.20;;;2.00;;
73733;SDS011;62039;50.000;9.064;2023-12-20T11:06:22;5.73;;;2.43;;
73733;SDS011;62039;50.000;9.064;2023-12-20T11:09:03;4.03;;;2.03;;
73733;SDS011;62039;50.000;9.064;2023-12-20T11:11:38;3.83;;;1.43;;
73733;SDS011;62039;50.000;9.064;2023-12-20T11:14:17;2.43;;;1.37;;
73733;SDS011;62039;50.000;9.064;2023-12-20T11:16:49;4.13;;;2.07;;
73733;SDS011;62039;50.000;9.064;2023-12-20T11:19:21;4.30;;;2.27;;
73733;SDS011;62039;50.000;9.064;2023-12-20T11:21:48;3.90;;;1.60;;
73733;SDS011;62039;50.000;9.064;2023-12-20T11:24:18;4.70;;;2.23;;
73733;SDS011;62039;50.000;9.064;2023-12-20T11:26:48;2.80;;;1.73;;
73733;SDS011;62039;50.000;9.064;2023-12-20T11:32:01;3.50;;;1.93;;
73733;SDS011;62039;50.000;9.064;2023-12-20T11:34:31;6.27;;;1.63;;
73733;SDS011;62039;50.000;9.064;2023-12-20T11:37:00;4.90;;;1.90;;
73733;SDS011;62039;50.000;9.064;2023-12-20T11:39:31;3.63;;;1.90;;
73733;SDS011;62039;50.000;9.064;2023-12-20T11:41:58;4.17;;;1.93;;
73733;SDS011;62039;50.000;9.064;2023-12-20T11:44:31;4.17;;;1.87;;
73733;SDS011;62039;50.000;9.064;2023-12-20T11:46:57;2.63;;;1.50;;
73733;SDS011;62039;50.000;9.064;2023-12-20T11:49:25;5.17;;;1.73;;
73733;SDS011;62039;50.000;9.064;2023-12-20T11:51:52;4.63;;;1.93;;
73733;SDS011;62039;50.000;9.064;2023-12-20T11:54:19;3.27;;;1.77;;
73733;SDS011;62039;50.000;9.064;2023-12-20T11:56:48;3.27;;;1.53;;
73733;SDS011;62039;50.000;9.064;2023-12-20T11:59:15;3.30;;;1.77;;
73733;SDS011;62039;50.000;9.064;2023-12-20T12:01:49;3.67;;;1.93;;
73733;SDS011;62039;50.000;9.064;2023-12-20T12:04:17;4.63;;;1.80;;
73733;SDS011;62039;50.000;9.064;2023-12-20T12:06:44;4.00;;;1.60;;
73733;SDS011;62039;50.000;9.064;2023-12-20T12:09:12;2.40;;;1.40;;
73733;SDS011;62039;50.000;9.064;2023-12-20T12:11:39;2.70;;;1.50;;
73733;SDS011;62039;50.000;9.064;2023-12-20T12:14:09;3.87;;;1.93;;
73733;SDS011;62039;50.000;9.064;2023-12-20T12:16:36;3.73;;;1.80;;
73733;SDS011;62039;50.000;9.064;2023-12-20T12:19:03;4.33;;;1.70;;
73733;SDS011;62039;50.000;9.064;2023-12-20T12:21:30;5.30;;;1.77;;
73733;SDS011;62039;50.000;9.064;2023-12-20T12:24:08;6.23;;;2.67;;
73733;SDS011;62039;50.000;9.064;2023-12-20T12:26:35;5.57;;;2.50;;
73733;SDS011;62039;50.000;9.064;2023-12-20T12:29:02;4.93;;;2.73;;
73733;SDS011;62039;50.000;9.064;2023-12-20T12:31:32;6.27;;;3.60;;
73733;SDS011;62039;50.000;9.064;2023-12-20T12:33:59;3.83;;;2.50;;
73733;SDS011;62039;50.000;9.064;2023-12-20T12:36:27;4.83;;;2.10;;
73733;SDS011;62039;50.000;9.064;2023-12-20T12:38:56;2.97;;;1.50;;
73733;SDS011;62039;50.000;9.064;2023-12-20T12:41:23;4.47;;;1.90;;
73733;SDS011;62039;50.000;9.064;2023-12-20T12:43:50;5.33;;;1.60;;
73733;SDS011;62039;50.000;9.064;2023-12-20T12:46:17;4.67;;;1.60;;
73733;SDS011;62039;50.000;9.064;2023-12-20T12:48:47;3.90;;;1.57;;
73733;SDS011;62039;50.000;9.064;2023-12-20T12:51:14;3.60;;;1.90;;
73733;SDS011;62039;50.000;9.064;2023-12-20T12:53:41;3.10;;;1.40;;
73733;SDS011;62039;50.000;9.064;2023-12-20T12:56:08;4.53;;;1.73;;
73733;SDS011;62039;50.000;9.064;2023-12-20T12:58:35;4.00;;;1.60;;
73733;SDS011;62039;50.000;9.064;2023-12-20T13:01:02;3.33;;;1.63;;
73733;SDS011;62039;50.000;9.064;2023-12-20T13:03:29;2.37;;;1.50;;
73733;SDS011;62039;50.000;9.064;2023-12-20T13:05:59;5.87;;;1.97;;
73733;SDS011;62039;50.000;9.064;2023-12-20T13:08:26;5.23;;;1.90;;
73733;SDS011;62039;50.000;9.064;2023-12-20T13:10:53;2.97;;;1.40;;
73733;SDS011;62039;50.000;9.064;2023-12-20T13:13:20;2.70;;;1.60;;
73733;SDS011;62039;50.000;9.064;2023-12-20T13:15:47;3.80;;;1.50;;
73733;SDS011;62039;50.000;9.064;2023-12-20T13:18:14;6.10;;;2.10;;
73733;SDS011;62039;50.000;9.064;2023-12-20T13:20:41;3.90;;;1.60;;
73733;SDS011;62039;50.000;9.064;2023-12-20T13:23:11;4.77;;;1.70;;
73733;SDS011;62039;50.000;9.064;2023-12-20T13:25:38;5.70;;;1.83;;
73733;SDS011;62039;50.000;9.064;2023-12-20T13:28:05;3.07;;;1.40;;
73733;SDS011;62039;50.000;9.064;2023-12-20T13:30:32;4.77;;;1.53;;
73733;SDS011;62039;50.000;9.064;2023-12-20T13:32:59;4.83;;;1.80;;
73733;SDS011;62039;50.000;9.064;2023-12-20T13:35:26;3.10;;;1.80;;
73733;SDS011;62039;50.000;9.064;2023-12-20T13:37:53;4.90;;;1.87;;
73733;SDS011;62039;50.000;9.064;2023-12-20T13:40:23;3.27;;;1.50;;
73733;SDS011;62039;50.000;9.064;2023-12-20T13:42:50;2.67;;;1.53;;
73733;SDS011;62039;50.000;9.064;2023-12-20T13:45:17;4.43;;;2.20;;
73733;SDS011;62039;50.000;9.064;2023-12-20T13:47:44;4.70;;;2.33;;
73733;SDS011;62039;50.000;9.064;2023-12-20T13:50:12;3.37;;;1.80;;
73733;SDS011;62039;50.000;9.064;2023-12-20T13:52:39;4.57;;;2.10;;
73733;SDS011;62039;50.000;9.064;2023-12-20T13:55:06;6.83;;;2.33;;
73733;SDS011;62039;50.000;9.064;2023-12-20T13:57:37;4.00;;;2.10;;
73733;SDS011;62039;50.000;9.064;2023-12-20T14:00:20;5.60;;;2.20;;
73733;SDS011;62039;50.000;9.064;2023-12-20T14:02:47;4.83;;;2.57;;
73733;SDS011;62039;50.000;9.064;2023-12-20T14:05:14;4.27;;;2.00;;
73733;SDS011;62039;50.000;9.064;2023-12-20T14:07:41;5.93;;;2.00;;
73733;SDS011;62039;50.000;9.064;2023-12-20T14:10:09;7.67;;;2.27;;
73733;SDS011;62039;50.000;9.064;2023-12-20T14:12:40;3.27;;;1.93;;
73733;SDS011;62039;50.000;9.064;2023-12-20T14:15:07;3.17;;;1.70;;
73733;SDS011;62039;50.000;9.064;2023-12-20T14:17:35;7.17;;;2.37;;
73733;SDS011;62039;50.000;9.064;2023-12-20T14:20:02;5.33;;;2.20;;
73733;SDS011;62039;50.000;9.064;2023-12-20T14:22:29;5.83;;;2.60;;
73733;SDS011;62039;50.000;9.064;2023-12-20T14:24:56;4.30;;;1.93;;
73733;SDS011;62039;50.000;9.064;2023-12-20T14:27:23;8.67;;;2.57;;
73733;SDS011;62039;50.000;9.064;2023-12-20T14:29:53;6.30;;;2.57;;
73733;SDS011;62039;50.000;9.064;2023-12-20T14:32:20;2.77;;;1.70;;
73733;SDS011;62039;50.000;9.064;2023-12-20T14:34:47;5.83;;;2.70;;
73733;SDS011;62039;50.000;9.064;2023-12-20T14:37:14;8.47;;;5.03;;
73733;SDS011;62039;50.000;9.064;2023-12-20T14:39:41;8.60;;;4.10;;
73733;SDS011;62039;50.000;9.064;2023-12-20T14:42:08;7.63;;;3.60;;
73733;SDS011;62039;50.000;9.064;2023-12-20T14:44:35;6.20;;;3.60;;
73733;SDS011;62039;50.000;9.064;2023-12-20T14:47:04;4.70;;;2.70;;
73733;SDS011;62039;50.000;9.064;2023-12-20T14:49:31;6.37;;;3.70;;
73733;SDS011;62039;50.000;9.064;2023-12-20T14:52:01;5.20;;;3.33;;
73733;SDS011;62039;50.000;9.064;2023-12-20T14:54:29;6.47;;;2.80;;